Time;durP1;ratioP1;P1;durP2;ratioP2;P2;SDS_P1;SDS_P2;PMS_P1;PMS_P2;Temp;Humidity;BMP_temperature;BMP_pressure;BME280_temperature;BME280_humidity;BME280_pressure;Samples;Min_cycle;Max_cycle;Signal;HPM_P1;HPM_P2
2021/01/24 00:01:21;;;;;;;;;;;;;;;17.76;63.54;99637.22;5043109;28;2272;-58
2021/01/24 00:03:46;;;;;;;;;;;;;;;17.92;62.89;99615.13;5061606;28;1889;-64
2021/01/24 00:06:11;;;;;;;;;;;;;;;18.01;62.86;99624.91;5045154;28;1503;-65
2021/01/24 00:08:37;;;;;;;;;;;;;;;18.09;62.07;99628.47;5043256;28;1447;-58
2021/01/24 00:11:02;;;;;;;;;;;;;;;18.10;62.77;99621.25;5030441;28;1552;-65
2021/01/24 00:13:27;;;;;;;;;;;;;;;18.16;62.46;99623.31;5027419;28;1418;-65
2021/01/24 00:15:53;;;;;;;;;;;;;;;18.17;62.01;99633.03;5048068;28;1886;-65
2021/01/24 00:18:18;;;;;;;;;;;;;;;18.12;62.57;99640.69;5038325;28;1494;-65
2021/01/24 00:20:44;;;;;;;;;;;;;;;18.08;62.42;99631.28;5056173;28;1478;-64
2021/01/24 00:23:09;;;;;;;;;;;;;;;18.03;63.49;99628.25;5038953;28;1357;-58
2021/01/24 00:25:35;;;;;;;;;;;;;;;18.01;63.37;99620.38;5057315;28;1448;-58
2021/01/24 00:28:00;;;;;;;;;;;;;;;17.97;62.59;99618.19;5040467;28;1511;-64
2021/01/24 00:30:25;;;;;;;;;;;;;;;17.97;63.03;99631.56;5057622;28;1420;-64
2021/01/24 00:32:50;;;;;;;;;;;;;;;17.96;62.54;99632.53;5057710;28;1353;-58
2021/01/24 00:35:16;;;;;;;;;;;;;;;17.93;62.37;99635.53;5057895;28;1882;-59
2021/01/24 00:37:42;;;;;;;;;;;;;;;17.88;63.00;99636.81;5057603;28;1428;-65
2021/01/24 00:40:08;;;;;;;;;;;;;;;17.87;63.59;99640.50;5057797;28;1492;-58
2021/01/24 00:42:34;;;;;;;;;;;;;;;17.85;63.14;99644.34;5040093;28;1483;-58
2021/01/24 00:44:59;;;;;;;;;;;;;;;17.76;62.76;99631.88;5057652;28;1321;-58
2021/01/24 00:47:25;;;;;;;;;;;;;;;17.70;63.63;99623.44;5057800;28;1408;-58
2021/01/24 00:49:50;;;;;;;;;;;;;;;17.68;63.61;99619.25;5039718;28;1520;-58
2021/01/24 00:52:15;;;;;;;;;;;;;;;17.67;63.11;99628.28;5057498;28;1527;-58
2021/01/24 00:54:41;;;;;;;;;;;;;;;17.59;63.68;99625.56;5057269;28;1957;-64
2021/01/24 00:57:06;;;;;;;;;;;;;;;17.54;63.57;99611.81;5057297;28;1337;-58
2021/01/24 00:59:32;;;;;;;;;;;;;;;17.50;63.29;99616.59;5057498;28;1396;-58
2021/01/24 01:01:57;;;;;;;;;;;;;;;17.44;63.01;99607.38;5057287;28;1691;-64
2021/01/24 01:04:23;;;;;;;;;;;;;;;17.46;63.37;99620.59;5056367;28;1515;-58
2021/01/24 01:06:48;;;;;;;;;;;;;;;17.37;63.25;99598.31;5057046;28;1486;-58
2021/01/24 01:09:14;;;;;;;;;;;;;;;17.34;62.52;99595.91;5056497;28;1541;-63
2021/01/24 01:11:39;;;;;;;;;;;;;;;17.24;62.99;99601.34;5056990;28;1393;-58
2021/01/24 01:14:04;;;;;;;;;;;;;;;17.22;62.62;99592.63;5056616;28;1436;-58
2021/01/24 01:16:30;;;;;;;;;;;;;;;17.20;63.82;99591.13;5056773;28;1972;-58
2021/01/24 01:18:55;;;;;;;;;;;;;;;17.17;63.18;99594.94;5057025;28;1413;-58
2021/01/24 01:21:20;;;;;;;;;;;;;;;17.15;63.37;99585.38;5057117;28;1387;-64
2021/01/24 01:23:46;;;;;;;;;;;;;;;17.15;63.05;99585.38;5039574;28;1393;-64
2021/01/24 01:26:12;;;;;;;;;;;;;;;17.07;62.75;99570.13;5056798;28;1503;-64
2021/01/24 01:28:38;;;;;;;;;;;;;;;17.00;63.42;99593.94;5056396;28;1427;-64
2021/01/24 01:31:03;;;;;;;;;;;;;;;17.00;63.88;99572.56;5039252;28;1439;-58
2021/01/24 01:33:28;;;;;;;;;;;;;;;16.91;63.42;99573.47;5056633;28;1380;-65
2021/01/24 01:35:54;;;;;;;;;;;;;;;16.90;62.99;99572.63;5056832;28;1953;-58
2021/01/24 01:38:19;;;;;;;;;;;;;;;16.86;64.27;99589.09;5038870;28;1444;-65
2021/01/24 01:40:44;;;;;;;;;;;;;;;16.85;64.40;99576.72;5038985;28;1412;-58
2021/01/24 01:43:10;;;;;;;;;;;;;;;16.85;64.07;99584.75;5056624;28;1408;-58
2021/01/24 01:45:35;;;;;;;;;;;;;;;16.83;63.64;99581.38;5056255;28;1562;-58
2021/01/24 01:48:01;;;;;;;;;;;;;;;16.82;64.49;99583.22;5056502;28;1456;-65
2021/01/24 01:50:26;;;;;;;;;;;;;;;16.79;63.26;99596.00;5056130;28;1527;-58
2021/01/24 01:52:51;;;;;;;;;;;;;;;16.75;63.05;99592.81;5055940;28;1408;-64
2021/01/24 01:55:17;;;;;;;;;;;;;;;16.72;63.16;99589.59;5038380;28;1898;-64
2021/01/24 01:57:42;;;;;;;;;;;;;;;16.72;62.77;99585.06;5056180;28;1494;-58
2021/01/24 02:00:09;;;;;;;;;;;;;;;16.68;63.58;99568.53;5055862;28;1570;-64
2021/01/24 02:03:07;;;;;;;;;;;;;;;16.65;63.14;99563.50;5038341;28;1503;-64
2021/01/24 02:05:41;;;;;;;;;;;;;;;16.61;63.40;99578.13;5024377;28;1580;-63
2021/01/24 02:08:09;;;;;;;;;;;;;;;16.62;63.45;99570.94;5033620;28;1519;-58
2021/01/24 02:10:43;;;;;;;;;;;;;;;16.58;63.75;99575.75;5055435;28;1616;-58
2021/01/24 02:13:16;;;;;;;;;;;;;;;16.58;64.28;99565.06;5055752;28;1404;-64
2021/01/24 02:15:42;;;;;;;;;;;;;;;16.54;64.40;99579.69;5055564;28;1926;-58
2021/01/24 02:18:09;;;;;;;;;;;;;;;16.53;63.46;99562.00;5055853;28;1400;-58
2021/01/24 02:20:40;;;;;;;;;;;;;;;16.52;64.64;99560.31;5055784;28;1459;-58
2021/01/24 02:23:14;;;;;;;;;;;;;;;16.50;63.84;99562.31;5055889;28;1365;-58
2021/01/24 02:25:46;;;;;;;;;;;;;;;16.46;64.52;99556.41;5054793;28;1416;-58
2021/01/24 02:28:17;;;;;;;;;;;;;;;16.47;64.92;99557.25;5055683;28;1368;-64
2021/01/24 02:30:42;;;;;;;;;;;;;;;16.51;64.97;99569.31;5055597;28;1448;-64
2021/01/24 02:33:13;;;;;;;;;;;;;;;16.47;64.19;99544.78;5055498;28;1344;-63
2021/01/24 02:35:40;;;;;;;;;;;;;;;16.45;64.21;99559.22;5037961;28;1886;-64
2021/01/24 02:38:07;;;;;;;;;;;;;;;16.46;64.44;99560.94;5059706;28;1462;-64
2021/01/24 02:40:35;;;;;;;;;;;;;;;16.43;64.86;99550.53;5055203;28;1563;-63
2021/01/24 02:43:02;;;;;;;;;;;;;;;16.43;64.78;99559.41;5055139;28;1396;-64
2021/01/24 02:45:28;;;;;;;;;;;;;;;16.41;63.58;99555.19;5037421;28;1464;-58
2021/01/24 02:47:54;;;;;;;;;;;;;;;16.43;64.09;99569.22;5055247;28;1443;-59
2021/01/24 02:50:19;;;;;;;;;;;;;;;16.41;64.85;99587.19;5037559;28;1517;-63
2021/01/24 02:52:46;;;;;;;;;;;;;;;16.39;64.06;99565.16;5039432;28;1452;-58
2021/01/24 02:55:13;;;;;;;;;;;;;;;16.35;64.76;99555.78;5037207;28;1889;-60
2021/01/24 02:57:39;;;;;;;;;;;;;;;16.36;64.39;99557.47;5055198;28;1419;-64
2021/01/24 03:02:45;;;;;;;;;;;;;;;16.40;64.54;99553.50;4317787;26;2015;-56
2021/01/24 03:05:11;;;;;;;;;;;;;;;16.53;65.33;99564.66;5020140;28;1303;-54
2021/01/24 03:07:36;;;;;;;;;;;;;;;16.90;63.67;99569.13;5023541;28;1491;-57
2021/01/24 03:13:01;;;;;;;;;;;;;;;18.19;61.42;99569.50;5040902;28;1347;-58
2021/01/24 03:15:27;;;;;;;;;;;;;;;19.11;59.46;99552.75;5007923;28;1969;-60
2021/01/24 03:17:55;;;;;;;;;;;;;;;19.27;59.21;99534.81;5034395;28;1463;-64
2021/01/24 03:20:21;;;;;;;;;;;;;;;19.22;60.12;99539.88;5034211;28;1412;-58
2021/01/24 03:22:47;;;;;;;;;;;;;;;19.57;59.28;99539.69;5035003;28;1447;-64
2021/01/24 03:25:13;;;;;;;;;;;;;;;19.61;59.48;99570.50;5034897;28;788;-58
2021/01/24 03:27:38;;;;;;;;;;;;;;;19.71;59.52;99549.75;5027765;28;1361;-65
2021/01/24 03:30:05;;;;;;;;;;;;;;;19.59;59.98;99568.00;5055031;28;820;-64
2021/01/24 03:32:30;;;;;;;;;;;;;;;19.52;60.06;99552.75;5036017;28;1444;-65
2021/01/24 03:34:55;;;;;;;;;;;;;;;19.46;60.10;99548.91;5034666;28;1948;-58
2021/01/24 03:37:21;;;;;;;;;;;;;;;19.62;59.97;99550.75;5033785;28;1436;-64
2021/01/24 03:39:46;;;;;;;;;;;;;;;19.67;59.92;99559.94;5034464;28;1499;-58
2021/01/24 03:42:11;;;;;;;;;;;;;;;19.65;60.01;99545.03;5040176;28;1146;-65
2021/01/24 03:44:37;;;;;;;;;;;;;;;19.54;60.41;99564.16;5022800;28;1452;-58
2021/01/24 03:47:02;;;;;;;;;;;;;;;19.53;60.67;99549.06;5041786;28;1345;-58
2021/01/24 03:49:28;;;;;;;;;;;;;;;19.60;60.09;99550.91;5040591;28;1247;-65
2021/01/24 03:51:53;;;;;;;;;;;;;;;19.66;60.29;99565.50;5039591;28;1350;-64
2021/01/24 03:54:19;;;;;;;;;;;;;;;19.13;61.59;99558.78;5042900;28;1362;-65
2021/01/24 03:56:44;;;;;;;;;;;;;;;18.65;62.85;99563.81;5022916;28;1882;-65
2021/01/24 03:59:10;;;;;;;;;;;;;;;18.37;62.49;99577.44;5042049;28;1341;-58
2021/01/24 04:01:35;;;;;;;;;;;;;;;18.15;63.48;99564.63;5023430;28;1508;-64
2021/01/24 04:04:00;;;;;;;;;;;;;;;17.97;64.06;99564.69;5039178;28;1266;-64
2021/01/24 04:06:26;;;;;;;;;;;;;;;17.83;63.78;99561.59;5044677;28;1251;-65
2021/01/24 04:08:51;;;;;;;;;;;;;;;17.74;64.00;99556.31;5027286;28;1311;-64
2021/01/24 04:11:17;;;;;;;;;;;;;;;17.66;63.86;99559.75;5029356;28;1368;-64
2021/01/24 04:13:43;;;;;;;;;;;;;;;17.58;64.31;99579.25;5042384;28;1531;-64
2021/01/24 04:16:09;;;;;;;;;;;;;;;17.49;65.18;99575.69;5042136;28;1906;-58
2021/01/24 04:18:34;;;;;;;;;;;;;;;17.43;65.32;99578.97;5040539;28;1195;-58
2021/01/24 04:20:59;;;;;;;;;;;;;;;17.40;64.73;99573.94;5042231;28;1329;-58
2021/01/24 04:23:25;;;;;;;;;;;;;;;17.34;65.29;99590.56;5027191;28;1259;-57
2021/01/24 04:25:50;;;;;;;;;;;;;;;17.30;66.00;99581.19;5041667;28;1338;-65
2021/01/24 04:28:16;;;;;;;;;;;;;;;17.28;66.06;99580.50;5043718;28;1393;-58
2021/01/24 04:30:41;;;;;;;;;;;;;;;17.21;64.94;99576.75;5042637;28;1313;-65
2021/01/24 04:33:07;;;;;;;;;;;;;;;17.19;65.93;99576.06;5046398;28;1286;-64
2021/01/24 04:35:32;;;;;;;;;;;;;;;17.13;66.10;99577.53;5026661;28;1870;-57
2021/01/24 04:37:58;;;;;;;;;;;;;;;17.13;66.67;99569.53;5047320;28;1259;-58
2021/01/24 04:40:23;;;;;;;;;;;;;;;17.10;66.24;99588.53;5047678;28;1396;-64
2021/01/24 04:42:49;;;;;;;;;;;;;;;17.00;66.23;99572.56;5052209;28;1484;-65
2021/01/24 04:45:14;;;;;;;;;;;;;;;16.98;66.64;99569.19;5051347;28;1400;-58
2021/01/24 04:47:41;;;;;;;;;;;;;;;16.98;66.84;99590.56;5040428;28;1455;-58
2021/01/24 04:50:06;;;;;;;;;;;;;;;16.96;67.81;99581.88;5042532;28;1368;-64
2021/01/24 04:52:32;;;;;;;;;;;;;;;16.94;67.05;99575.84;5048186;28;1459;-65
2021/01/24 04:54:58;;;;;;;;;;;;;;;16.94;67.51;99575.84;5057684;28;1886;-57
2021/01/24 04:57:23;;;;;;;;;;;;;;;16.91;67.48;99581.50;5046852;28;1199;-58
2021/01/24 04:59:49;;;;;;;;;;;;;;;16.93;67.22;99595.53;5047035;28;1313;-58
2021/01/24 05:02:14;;;;;;;;;;;;;;;16.86;67.46;99583.75;5045290;28;1349;-57
2021/01/24 05:04:39;;;;;;;;;;;;;;;16.88;68.36;99587.94;5039893;28;1377;-58
2021/01/24 05:07:05;;;;;;;;;;;;;;;16.85;67.01;99590.06;5055572;28;1404;-62
2021/01/24 05:09:30;;;;;;;;;;;;;;;16.84;67.51;99599.09;5050933;28;1389;-64
2021/01/24 05:11:56;;;;;;;;;;;;;;;16.84;68.44;99612.44;5042858;28;1377;-64
2021/01/24 05:14:24;;;;;;;;;;;;;;;16.77;67.46;99606.84;5040166;28;1389;-58
2021/01/24 05:16:54;;;;;;;;;;;;;;;16.76;67.03;99601.66;5022107;28;1333;-64
2021/01/24 05:19:20;;;;;;;;;;;;;;;16.76;67.15;99593.63;5045309;28;1429;-64
2021/01/24 05:21:46;;;;;;;;;;;;;;;16.74;66.97;99609.78;5051452;28;1376;-57
2021/01/24 05:24:12;;;;;;;;;;;;;;;16.70;67.90;99582.56;5055024;28;1463;-64
2021/01/24 05:26:38;;;;;;;;;;;;;;;16.71;67.69;99604.75;5052009;28;1377;-58
2021/01/24 05:29:04;;;;;;;;;;;;;;;16.68;67.80;99602.38;5042172;28;1353;-58
2021/01/24 05:31:30;;;;;;;;;;;;;;;16.70;67.05;99593.22;5046856;28;1475;-58
2021/01/24 05:33:56;;;;;;;;;;;;;;;16.67;67.39;99582.88;5049590;28;1622;-58
2021/01/24 05:36:21;;;;;;;;;;;;;;;16.63;67.52;99586.81;5039621;28;1890;-57
2021/01/24 05:38:47;;;;;;;;;;;;;;;16.65;67.16;99584.84;5053034;28;1388;-64
2021/01/24 05:41:12;;;;;;;;;;;;;;;16.66;67.39;99580.34;5038002;28;1396;-58
2021/01/24 05:43:41;;;;;;;;;;;;;;;16.64;67.37;99591.16;5037671;28;1456;-57
2021/01/24 05:46:07;;;;;;;;;;;;;;;16.65;67.80;99602.66;5050931;28;1566;-58
2021/01/24 05:48:36;;;;;;;;;;;;;;;16.60;68.44;99621.81;5039328;28;1492;-63
2021/01/24 05:51:02;;;;;;;;;;;;;;;16.59;67.41;99624.63;5032862;28;1448;-58
2021/01/24 05:53:28;;;;;;;;;;;;;;;16.60;67.11;99639.66;5024950;28;1291;-58
2021/01/24 05:55:53;;;;;;;;;;;;;;;16.57;67.36;99642.59;5048648;28;1890;-64
2021/01/24 05:58:22;;;;;;;;;;;;;;;16.57;67.11;99648.78;5039211;28;1562;-64
2021/01/24 06:00:49;;;;;;;;;;;;;;;16.55;68.37;99656.09;5020983;28;1409;-64
2021/01/24 06:03:15;;;;;;;;;;;;;;;16.55;67.20;99641.91;5037694;28;1392;-64
2021/01/24 06:05:41;;;;;;;;;;;;;;;16.51;68.45;99649.38;5046468;28;1439;-58
2021/01/24 06:08:06;;;;;;;;;;;;;;;16.52;67.27;99643.06;5041429;28;1487;-64
2021/01/24 06:10:32;;;;;;;;;;;;;;;16.50;68.16;99650.38;5051754;28;1487;-64
2021/01/24 06:13:01;;;;;;;;;;;;;;;16.48;68.05;99647.84;5041080;28;1400;-63
2021/01/24 06:15:30;;;;;;;;;;;;;;;16.47;67.83;99655.97;5046384;28;1973;-65
2021/01/24 06:17:57;;;;;;;;;;;;;;;16.46;67.47;99652.47;5047175;28;1488;-64
2021/01/24 06:20:24;;;;;;;;;;;;;;;16.48;67.54;99679.88;5051463;28;1492;-58
2021/01/24 06:23:09;;;;;;;;;;;;;;;16.47;68.27;99680.00;5039829;28;1393;-64
2021/01/24 06:25:36;;;;;;;;;;;;;;;16.45;67.70;99668.63;5029220;28;2214;-58
2021/01/24 06:28:09;;;;;;;;;;;;;;;16.44;68.42;99665.13;5036841;28;1511;-58
2021/01/24 06:30:36;;;;;;;;;;;;;;;16.45;68.59;99684.66;5051245;28;1496;-58
2021/01/24 06:33:11;;;;;;;;;;;;;;;16.43;68.28;99679.47;5041492;28;1451;-58
2021/01/24 06:35:43;;;;;;;;;;;;;;;16.42;68.33;99674.28;5036694;28;1943;-58
2021/01/24 06:38:08;;;;;;;;;;;;;;;16.40;67.71;99686.91;5036098;28;1358;-58
2021/01/24 06:40:41;;;;;;;;;;;;;;;16.44;68.24;99689.16;5041037;28;1400;-64
2021/01/24 06:43:06;;;;;;;;;;;;;;;16.45;69.07;99685.50;5042146;28;1491;-57
2021/01/24 06:45:32;;;;;;;;;;;;;;;16.45;69.19;99689.97;4669441;28;10000621;-64
2021/01/24 06:48:01;;;;;;;;;;;;;;;16.47;68.81;99696.00;5026720;28;1583;-64
2021/01/24 06:50:39;;;;;;;;;;;;;;;16.18;69.01;99648.09;5030001;28;1988;-64
2021/01/24 06:53:20;;;;;;;;;;;;;;;16.44;69.19;99693.66;4651172;28;10000055;-64
2021/01/24 06:55:52;;;;;;;;;;;;;;;16.44;68.22;99693.66;5022522;28;1893;-64
2021/01/24 06:58:41;;;;;;;;;;;;;;;16.36;67.70;99690.88;5027505;28;1409;-64
2021/01/24 07:01:25;;;;;;;;;;;;;;;16.38;68.87;99689.72;5005912;28;1467;-64
2021/01/24 07:04:09;;;;;;;;;;;;;;;16.33;68.10;99681.31;5024888;28;1509;-58
2021/01/24 07:06:35;;;;;;;;;;;;;;;16.33;68.55;99689.31;5027721;28;1459;-58
2021/01/24 07:09:21;;;;;;;;;;;;;;;16.32;67.76;99679.63;5027648;28;1409;-58
2021/01/24 07:12:03;;;;;;;;;;;;;;;16.36;68.54;99701.53;5027617;28;1485;-58
2021/01/24 07:14:35;;;;;;;;;;;;;;;16.35;68.63;99703.34;5028977;28;1398;-58
2021/01/24 07:17:09;;;;;;;;;;;;;;;16.36;67.85;99690.88;5027849;28;1398;-59
2021/01/24 07:19:35;;;;;;;;;;;;;;;16.38;67.86;99694.22;5034466;28;1173;-57
2021/01/24 07:22:00;;;;;;;;;;;;;;;16.39;69.05;99711.91;5010977;28;1646;-57
2021/01/24 07:24:26;;;;;;;;;;;;;;;16.38;68.29;99707.56;5031658;28;1472;-58
2021/01/24 07:26:55;;;;;;;;;;;;;;;16.44;68.55;99710.50;5025120;28;1408;-58
2021/01/24 07:29:27;;;;;;;;;;;;;;;16.37;68.62;99703.19;5028143;28;1409;-58
2021/01/24 07:31:53;;;;;;;;;;;;;;;16.39;69.20;99704.72;5027448;28;1508;-58
2021/01/24 07:34:19;;;;;;;;;;;;;;;16.35;68.33;99706.00;5032099;28;1420;-58
2021/01/24 07:36:47;;;;;;;;;;;;;;;16.37;68.30;99719.22;5022414;28;1886;-58
2021/01/24 07:39:13;;;;;;;;;;;;;;;16.38;68.71;99723.56;5030147;28;1448;-58
2021/01/24 07:41:38;;;;;;;;;;;;;;;16.37;69.62;99711.22;5008935;28;1491;-58
2021/01/24 07:44:04;;;;;;;;;;;;;;;16.36;69.81;99720.22;5028941;28;874;-58
2021/01/24 07:46:29;;;;;;;;;;;;;;;16.35;69.83;99721.19;5027844;28;1464;-58
2021/01/24 07:48:55;;;;;;;;;;;;;;;16.37;68.62;99724.56;5023494;28;1267;-58
2021/01/24 07:51:20;;;;;;;;;;;;;;;16.36;69.91;99729.06;5028787;28;1441;-58
2021/01/24 07:53:46;;;;;;;;;;;;;;;16.34;68.71;99727.53;5027301;28;2202;-58
2021/01/24 07:56:12;;;;;;;;;;;;;;;16.37;68.46;99732.56;5028088;28;1885;-58
2021/01/24 07:58:38;;;;;;;;;;;;;;;16.40;69.65;99718.94;5024251;28;1513;-58
2021/01/24 08:01:03;;;;;;;;;;;;;;;16.43;69.29;99734.66;5025716;28;1652;-58
2021/01/24 08:03:29;;;;;;;;;;;;;;;16.45;68.73;99738.00;5028497;28;1449;-57
2021/01/24 08:06:16;;;;;;;;;;;;;;;16.48;68.56;99743.06;5024565;28;962;-58
2021/01/24 08:08:42;;;;;;;;;;;;;;;16.55;69.32;99733.47;5027705;28;1441;-58
2021/01/24 08:11:07;;;;;;;;;;;;;;;16.58;69.28;99743.88;5028046;28;1084;-58
2021/01/24 08:13:33;;;;;;;;;;;;;;;16.62;67.98;99753.28;5028341;28;1638;-57
2021/01/24 08:16:00;;;;;;;;;;;;;;;16.53;69.54;99755.97;5031021;28;1985;-58
2021/01/24 08:18:28;;;;;;;;;;;;;;;16.56;68.84;99777.06;5029664;28;1305;-58
2021/01/24 08:20:54;;;;;;;;;;;;;;;16.61;69.42;99780.97;5033738;28;1460;-57
2021/01/24 08:23:19;;;;;;;;;;;;;;;16.62;69.16;99787.97;5029827;28;1461;-58
2021/01/24 08:25:45;;;;;;;;;;;;;;;16.64;68.07;99780.69;5029581;28;2278;-57
2021/01/24 08:28:10;;;;;;;;;;;;;;;16.72;68.87;99797.81;5017757;28;1387;-58
2021/01/24 08:30:39;;;;;;;;;;;;;;;16.76;68.83;99791.19;5032767;28;1351;-58
2021/01/24 08:33:06;;;;;;;;;;;;;;;16.75;68.45;99792.16;5031022;28;1206;-57
2021/01/24 08:35:32;;;;;;;;;;;;;;;16.83;68.33;99797.66;5031208;28;1886;-58
2021/01/24 08:37:58;;;;;;;;;;;;;;;16.79;67.90;99794.41;5031282;28;1766;-58
2021/01/24 08:40:29;;;;;;;;;;;;;;;16.81;67.88;99789.81;5027531;28;1379;-58
2021/01/24 08:42:55;;;;;;;;;;;;;;;16.80;67.77;99795.25;5031099;28;1422;-57
2021/01/24 08:45:21;;;;;;;;;;;;;;;16.84;66.76;99799.34;5032908;28;1396;-58
2021/01/24 08:47:57;;;;;;;;;;;;;;;16.96;66.83;99798.19;5030899;28;1267;-65
2021/01/24 08:50:23;;;;;;;;;;;;;;;16.99;66.42;99784.56;5031656;28;1413;-65
2021/01/24 08:52:58;;;;;;;;;;;;;;;17.03;66.24;99788.59;5034728;28;1406;-62
2021/01/24 08:55:23;;;;;;;;;;;;;;;17.12;66.28;99799.41;5030459;28;2503;-66
2021/01/24 08:57:49;;;;;;;;;;;;;;;17.05;67.04;99793.78;5033365;28;1226;-67
2021/01/24 09:00:15;;;;;;;;;;;;;;;17.02;66.43;99799.44;5037052;28;2617;-67
2021/01/24 09:02:41;;;;;;;;;;;;;;;17.05;66.93;99783.09;5031820;28;1819;-65
2021/01/24 09:05:08;;;;;;;;;;;;;;;17.01;66.01;99790.59;5031219;28;2377;-66
2021/01/24 09:07:37;;;;;;;;;;;;;;;17.08;66.27;99789.00;5032149;28;1394;-67
2021/01/24 09:10:14;;;;;;;;;;;;;;;17.12;65.52;99794.06;5031994;28;1516;-67
2021/01/24 09:12:40;;;;;;;;;;;;;;;17.14;65.96;99786.75;5033623;28;1445;-68
2021/01/24 09:15:07;;;;;;;;;;;;;;;17.19;65.87;99797.81;5030036;28;1910;-68
2021/01/24 09:17:32;;;;;;;;;;;;;;;17.21;66.10;99790.47;5028089;28;1409;-68
2021/01/24 09:19:57;;;;;;;;;;;;;;;17.25;66.04;99794.56;5030436;28;1345;-68
2021/01/24 09:22:23;;;;;;;;;;;;;;;17.25;65.67;99779.38;5030231;28;2016;-68
2021/01/24 09:24:48;;;;;;;;;;;;;;;17.25;66.08;99783.88;5024663;28;1523;-67
2021/01/24 09:27:15;;;;;;;;;;;;;;;17.23;65.64;99792.03;5028770;28;1418;-68
2021/01/24 09:29:41;;;;;;;;;;;;;;;17.21;66.42;99793.16;5031489;28;1507;-67
2021/01/24 09:32:06;;;;;;;;;;;;;;;17.22;66.12;99794.84;5032657;28;1528;-69
2021/01/24 09:34:32;;;;;;;;;;;;;;;17.21;65.24;99794.03;5030977;28;1370;-67
2021/01/24 09:36:58;;;;;;;;;;;;;;;17.25;64.81;99794.56;5029418;28;1975;-67
2021/01/24 09:39:24;;;;;;;;;;;;;;;17.23;65.15;99785.84;5033402;28;1378;-66
2021/01/24 09:41:49;;;;;;;;;;;;;;;17.24;66.22;99784.84;5031699;28;1552;-66
2021/01/24 09:44:15;;;;;;;;;;;;;;;17.29;65.62;99780.75;5031863;28;1345;-65
2021/01/24 09:46:40;;;;;;;;;;;;;;;17.41;65.48;99794.75;5030101;28;1437;-67
2021/01/24 09:49:06;;;;;;;;;;;;;;;17.39;65.62;99790.53;5029913;28;1329;-58
2021/01/24 09:51:31;;;;;;;;;;;;;;;17.29;65.37;99791.44;5026096;28;1535;-58
2021/01/24 09:53:57;;;;;;;;;;;;;;;17.30;65.20;99781.59;5016251;28;2336;-58
2021/01/24 09:56:23;;;;;;;;;;;;;;;17.32;65.48;99778.78;5028844;28;1967;-59
2021/01/24 09:58:49;;;;;;;;;;;;;;;17.35;66.06;99784.69;5030381;28;1445;-58
2021/01/24 10:01:14;;;;;;;;;;;;;;;17.36;66.13;99778.31;5032340;28;1549;-58
2021/01/24 10:03:40;;;;;;;;;;;;;;;17.38;65.97;99778.19;5032119;28;1441;-67
2021/01/24 10:06:05;;;;;;;;;;;;;;;17.35;66.45;99775.78;5030297;28;1464;-67
2021/01/24 10:08:31;;;;;;;;;;;;;;;17.32;66.38;99782.28;5031803;28;1488;-67
2021/01/24 10:10:57;;;;;;;;;;;;;;;17.32;65.35;99770.75;5031754;28;1661;-67
2021/01/24 10:13:22;;;;;;;;;;;;;;;17.42;66.35;99758.19;5029533;28;1453;-58
2021/01/24 10:15:51;;;;;;;;;;;;;;;17.40;66.33;99758.31;5033991;28;2017;-62
2021/01/24 10:18:17;;;;;;;;;;;;;;;17.41;66.18;99762.69;5034911;28;1628;-66
2021/01/24 10:20:43;;;;;;;;;;;;;;;17.38;66.10;99762.16;5044767;28;1637;-58
2021/01/24 10:23:08;;;;;;;;;;;;;;;17.37;65.68;99755.09;5035586;28;1577;-65
2021/01/24 10:25:33;;;;;;;;;;;;;;;17.42;66.15;99761.69;5035159;28;1543;-66
2021/01/24 10:27:59;;;;;;;;;;;;;;;17.46;65.53;99765.75;5035725;28;1420;-59
2021/01/24 10:30:24;;;;;;;;;;;;;;;17.42;65.98;99767.03;5035158;28;1596;-58
2021/01/24 10:32:50;;;;;;;;;;;;;;;17.43;66.09;99759.88;5036220;28;756;-67
2021/01/24 10:35:15;;;;;;;;;;;;;;;17.49;65.77;99746.75;5034827;28;1886;-66
2021/01/24 10:37:40;;;;;;;;;;;;;;;17.54;66.17;99750.78;5034670;28;1687;-65
2021/01/24 10:40:06;;;;;;;;;;;;;;;17.53;66.27;99757.97;5036162;28;1635;-63
2021/01/24 10:42:32;;;;;;;;;;;;;;;17.47;66.68;99759.41;5033579;28;1703;-60
2021/01/24 10:44:57;;;;;;;;;;;;;;;17.49;66.69;99765.47;5033954;28;1590;-60
2021/01/24 10:47:23;;;;;;;;;;;;;;;17.47;67.16;99750.56;5034446;28;1541;-60
2021/01/24 10:49:48;;;;;;;;;;;;;;;17.44;67.68;99751.69;5034947;28;1742;-64
2021/01/24 10:52:13;;;;;;;;;;;;;;;17.43;66.88;99742.00;5034473;28;1517;-60
2021/01/24 10:54:39;;;;;;;;;;;;;;;17.46;67.28;99754.22;5035213;28;1953;-64
2021/01/24 10:57:04;;;;;;;;;;;;;;;17.42;67.17;99748.31;5034799;28;1686;-64
2021/01/24 10:59:30;;;;;;;;;;;;;;;17.44;67.02;99746.34;5035068;28;1644;-63
2021/01/24 11:01:55;;;;;;;;;;;;;;;17.48;67.86;99749.56;5034437;28;1528;-74
2021/01/24 11:04:21;;;;;;;;;;;;;;;17.44;67.64;99750.84;5036968;28;1760;-65
2021/01/24 11:06:46;;;;;;;;;;;;;;;17.45;67.32;99742.69;5033221;28;1785;-75
2021/01/24 11:09:12;;;;;;;;;;;;;;;17.53;67.03;99754.44;5035309;28;1664;-58
2021/01/24 11:11:37;;;;;;;;;;;;;;;17.50;64.14;99735.03;5034111;28;1497;-58
2021/01/24 11:14:02;;;;;;;;;;;;;;;17.41;66.18;99746.66;5034842;28;1317;-59
2021/01/24 11:16:27;;;;;;;;;;;;;;;17.35;65.94;99741.91;5033572;28;1983;-59
2021/01/24 11:18:53;;;;;;;;;;;;;;;17.32;66.30;99739.53;5033475;28;847;-68
2021/01/24 11:21:18;;;;;;;;;;;;;;;17.25;66.44;99744.63;5035097;28;971;-58
2021/01/24 11:23:43;;;;;;;;;;;;;;;17.20;67.20;99748.75;5035226;28;850;-58
2021/01/24 11:26:09;;;;;;;;;;;;;;;17.18;67.39;99748.06;5035281;28;759;-69
2021/01/24 11:28:34;;;;;;;;;;;;;;;17.15;66.26;99746.53;5035307;28;857;-69
2021/01/24 11:31:00;;;;;;;;;;;;;;;17.15;67.45;99743.00;5035018;28;734;-58
2021/01/24 11:33:25;;;;;;;;;;;;;;;17.17;67.21;99746.34;5035237;28;859;-69
2021/01/24 11:35:50;;;;;;;;;;;;;;;17.17;67.14;99749.03;5035099;28;1961;-67
2021/01/24 11:38:16;;;;;;;;;;;;;;;17.16;67.02;99745.53;5034804;28;844;-60
2021/01/24 11:40:41;;;;;;;;;;;;;;;17.19;67.09;99739.91;5035118;28;764;-69
2021/01/24 11:43:06;;;;;;;;;;;;;;;17.20;66.85;99740.72;5034677;28;827;-69
2021/01/24 11:45:32;;;;;;;;;;;;;;;17.20;66.36;99740.72;5017432;28;1417;-69
2021/01/24 11:47:58;;;;;;;;;;;;;;;17.22;66.86;99741.41;5035122;28;797;-69
2021/01/24 11:50:23;;;;;;;;;;;;;;;17.20;66.90;99743.41;5034796;28;812;-69
2021/01/24 11:52:48;;;;;;;;;;;;;;;17.22;66.38;99741.41;5034919;28;729;-58
2021/01/24 11:55:14;;;;;;;;;;;;;;;17.21;66.19;99755.75;5034588;28;1886;-58
2021/01/24 11:57:39;;;;;;;;;;;;;;;17.23;66.46;99759.13;5036887;28;872;-69
2021/01/24 12:00:04;;;;;;;;;;;;;;;17.24;66.74;99760.81;5041457;28;809;-69
2021/01/24 12:02:30;;;;;;;;;;;;;;;17.19;65.83;99771.94;5041256;28;1335;-69
2021/01/24 12:04:55;;;;;;;;;;;;;;;17.21;66.48;99772.66;5041408;28;756;-68
2021/01/24 12:07:20;;;;;;;;;;;;;;;17.17;67.07;99771.25;5041455;28;913;-58
2021/01/24 12:09:45;;;;;;;;;;;;;;;17.16;66.68;99769.56;5041387;28;761;-69
2021/01/24 12:12:11;;;;;;;;;;;;;;;17.17;66.97;99762.38;5041036;28;1420;-58
2021/01/24 12:14:37;;;;;;;;;;;;;;;17.17;66.36;99775.75;5041618;28;797;-69
2021/01/24 12:17:02;;;;;;;;;;;;;;;17.18;66.35;99764.09;5041375;28;1981;-58
2021/01/24 12:19:27;;;;;;;;;;;;;;;17.14;67.36;99755.50;5040977;28;809;-68
2021/01/24 12:21:53;;;;;;;;;;;;;;;17.15;66.71;99761.69;5041056;28;912;-65
2021/01/24 12:24:18;;;;;;;;;;;;;;;17.17;66.86;99767.72;5041282;28;738;-68
2021/01/24 12:26:44;;;;;;;;;;;;;;;17.16;66.60;99763.38;5041548;28;843;-58
2021/01/24 12:29:09;;;;;;;;;;;;;;;17.19;66.61;99779.09;5023583;28;1359;-69
2021/01/24 12:31:34;;;;;;;;;;;;;;;17.17;66.67;99776.59;5040925;28;761;-68
2021/01/24 12:33:59;;;;;;;;;;;;;;;17.15;66.75;99773.25;5023618;28;1171;-69
2021/01/24 12:36:25;;;;;;;;;;;;;;;17.19;67.18;99779.09;5041118;28;1890;-69
2021/01/24 12:38:50;;;;;;;;;;;;;;;17.16;67.27;99774.06;5040889;28;852;-59
2021/01/24 12:41:15;;;;;;;;;;;;;;;17.13;66.89;99779.69;5039887;28;1145;-66
2021/01/24 12:43:40;;;;;;;;;;;;;;;17.12;65.89;99770.00;5040783;28;850;-58
2021/01/24 12:46:06;;;;;;;;;;;;;;;17.13;67.10;99777.03;5041095;28;754;-58
2021/01/24 12:48:31;;;;;;;;;;;;;;;17.10;66.58;99762.97;5040954;28;804;-68
2021/01/24 12:50:56;;;;;;;;;;;;;;;17.08;66.42;99764.13;5040806;28;809;-69
2021/01/24 12:53:21;;;;;;;;;;;;;;;17.07;67.06;99768.63;5041047;28;839;-69
2021/01/24 12:55:47;;;;;;;;;;;;;;;17.08;66.86;99772.13;5040666;28;1890;-69
2021/01/24 12:58:12;;;;;;;;;;;;;;;17.08;66.45;99772.97;5040711;28;983;-69
2021/01/24 13:00:37;;;;;;;;;;;;;;;17.09;65.96;99768.50;5040845;28;1309;-58